sensor_id;sensor_type;location;lat;lon;timestamp;pressure;altitude;pressure_sealevel;temperature;humidity
4022;BME280;2025;48.260;16.432;2022-11-12T00:02:05;101381.31;;;6.66;100.00
4022;BME280;2025;48.260;16.432;2022-11-12T00:04:32;101377.28;;;6.55;100.00
4022;BME280;2025;48.260;16.432;2022-11-12T00:06:59;101382.13;;;6.48;100.00
4022;BME280;2025;48.260;16.432;2022-11-12T00:09:26;101366.03;;;6.38;100.00
4022;BME280;2025;48.260;16.432;2022-11-12T00:11:53;101357.09;;;6.33;100.00
4022;BME280;2025;48.260;16.432;2022-11-12T00:14:20;101349.44;;;6.36;100.00
4022;BME280;2025;48.260;16.432;2022-11-12T00:16:49;101337.00;;;6.31;100.00
4022;BME280;2025;48.260;16.432;2022-11-12T00:19:16;101324.94;;;6.33;100.00
4022;BME280;2025;48.260;16.432;2022-11-12T00:21:43;101318.38;;;6.23;100.00
4022;BME280;2025;48.260;16.432;2022-11-12T00:24:10;101330.59;;;6.24;100.00
4022;BME280;2025;48.260;16.432;2022-11-12T00:26:37;101320.03;;;6.21;100.00
4022;BME280;2025;48.260;16.432;2022-11-12T00:29:04;101329.06;;;6.11;100.00
4022;BME280;2025;48.260;16.432;2022-11-12T00:31:31;101322.88;;;6.09;100.00
4022;BME280;2025;48.260;16.432;2022-11-12T00:34:00;101322.41;;;6.00;100.00
4022;BME280;2025;48.260;16.432;2022-11-12T00:36:27;101323.16;;;5.98;100.00
4022;BME280;2025;48.260;16.432;2022-11-12T00:38:54;101327.28;;;5.78;100.00
4022;BME280;2025;48.260;16.432;2022-11-12T00:41:21;101322.31;;;5.83;100.00
4022;BME280;2025;48.260;16.432;2022-11-12T00:43:48;101326.06;;;5.71;100.00
4022;BME280;2025;48.260;16.432;2022-11-12T00:46:15;101305.25;;;5.88;100.00
4022;BME280;2025;48.260;16.432;2022-11-12T00:48:42;101313.47;;;5.95;100.00
4022;BME280;2025;48.260;16.432;2022-11-12T00:51:11;101317.63;;;5.92;100.00
4022;BME280;2025;48.260;16.432;2022-11-12T00:53:38;101316.47;;;5.87;100.00
4022;BME280;2025;48.260;16.432;2022-11-12T00:56:06;101319.97;;;5.87;100.00
4022;BME280;2025;48.260;16.432;2022-11-12T00:58:34;101317.03;;;5.81;100.00
4022;BME280;2025;48.260;16.432;2022-11-12T01:01:06;101317.19;;;5.84;100.00
4022;BME280;2025;48.260;16.432;2022-11-12T01:03:33;101304.53;;;5.90;100.00
4022;BME280;2025;48.260;16.432;2022-11-12T01:06:02;101309.31;;;5.83;100.00
4022;BME280;2025;48.260;16.432;2022-11-12T01:08:30;101315.66;;;5.71;100.00
4022;BME280;2025;48.260;16.432;2022-11-12T01:11:05;101319.88;;;5.69;100.00
4022;BME280;2025;48.260;16.432;2022-11-12T01:13:32;101302.41;;;5.67;100.00
4022;BME280;2025;48.260;16.432;2022-11-12T01:16:04;101299.41;;;5.75;100.00
4022;BME280;2025;48.260;16.432;2022-11-12T01:18:31;101290.31;;;5.67;100.00
4022;BME280;2025;48.260;16.432;2022-11-12T01:20:59;101296.56;;;5.71;100.00
4022;BME280;2025;48.260;16.432;2022-11-12T01:23:27;101289.31;;;5.82;100.00
4022;BME280;2025;48.260;16.432;2022-11-12T01:25:55;101284.53;;;5.73;100.00
4022;BME280;2025;48.260;16.432;2022-11-12T01:28:22;101298.00;;;5.82;100.00
4022;BME280;2025;48.260;16.432;2022-11-12T01:30:49;101291.75;;;5.78;100.00
4022;BME280;2025;48.260;16.432;2022-11-12T01:33:16;101291.03;;;5.65;100.00
4022;BME280;2025;48.260;16.432;2022-11-12T01:35:43;101284.63;;;5.58;100.00
4022;BME280;2025;48.260;16.432;2022-11-12T01:38:11;101292.72;;;5.80;100.00
4022;BME280;2025;48.260;16.432;2022-11-12T01:40:38;101284.44;;;5.88;100.00
4022;BME280;2025;48.260;16.432;2022-11-12T01:43:11;101287.03;;;6.04;100.00
4022;BME280;2025;48.260;16.432;2022-11-12T01:45:39;101306.13;;;5.88;100.00
4022;BME280;2025;48.260;16.432;2022-11-12T01:48:12;101302.25;;;5.80;100.00
4022;BME280;2025;48.260;16.432;2022-11-12T01:50:49;101315.47;;;6.17;100.00
4022;BME280;2025;48.260;16.432;2022-11-12T01:53:18;101312.56;;;6.11;100.00
4022;BME280;2025;48.260;16.432;2022-11-12T01:55:46;101312.44;;;5.92;100.00
4022;BME280;2025;48.260;16.432;2022-11-12T01:58:17;101301.59;;;5.84;100.00
4022;BME280;2025;48.260;16.432;2022-11-12T02:00:46;101292.16;;;5.86;100.00
4022;BME280;2025;48.260;16.432;2022-11-12T02:03:17;101290.94;;;5.79;100.00
4022;BME280;2025;48.260;16.432;2022-11-12T02:05:46;101295.34;;;5.80;100.00
4022;BME280;2025;48.260;16.432;2022-11-12T02:08:15;101291.94;;;5.65;100.00
4022;BME280;2025;48.260;16.432;2022-11-12T02:10:42;101276.91;;;5.60;100.00
4022;BME280;2025;48.260;16.432;2022-11-12T02:13:09;101284.13;;;5.82;100.00
4022;BME280;2025;48.260;16.432;2022-11-12T02:15:55;101293.56;;;5.79;100.00
4022;BME280;2025;48.260;16.432;2022-11-12T02:18:23;101284.44;;;5.88;100.00
4022;BME280;2025;48.260;16.432;2022-11-12T02:20:53;101298.81;;;6.14;100.00
4022;BME280;2025;48.260;16.432;2022-11-12T02:23:22;101297.75;;;6.10;100.00
4022;BME280;2025;48.260;16.432;2022-11-12T02:25:49;101303.16;;;5.97;100.00
4022;BME280;2025;48.260;16.432;2022-11-12T02:28:16;101284.91;;;6.13;100.00
4022;BME280;2025;48.260;16.432;2022-11-12T02:30:45;101310.84;;;6.46;100.00
4022;BME280;2025;48.260;16.432;2022-11-12T02:33:13;101332.78;;;6.51;100.00
4022;BME280;2025;48.260;16.432;2022-11-12T02:35:40;101331.84;;;6.66;100.00
4022;BME280;2025;48.260;16.432;2022-11-12T02:38:07;101344.56;;;6.78;100.00
4022;BME280;2025;48.260;16.432;2022-11-12T02:40:37;101350.78;;;6.98;100.00
4022;BME280;2025;48.260;16.432;2022-11-12T02:43:04;101358.97;;;7.05;100.00
4022;BME280;2025;48.260;16.432;2022-11-12T02:45:31;101370.38;;;7.07;100.00
4022;BME280;2025;48.260;16.432;2022-11-12T02:47:58;101377.66;;;7.15;100.00
4022;BME280;2025;48.260;16.432;2022-11-12T02:50:25;101363.19;;;7.21;100.00
4022;BME280;2025;48.260;16.432;2022-11-12T02:52:52;101373.09;;;7.28;100.00
4022;BME280;2025;48.260;16.432;2022-11-12T02:55:19;101362.00;;;7.32;100.00
4022;BME280;2025;48.260;16.432;2022-11-12T02:57:47;101384.94;;;7.39;100.00
4022;BME280;2025;48.260;16.432;2022-11-12T03:00:15;101385.06;;;7.43;100.00
4022;BME280;2025;48.260;16.432;2022-11-12T03:02:43;101394.91;;;7.48;100.00
4022;BME280;2025;48.260;16.432;2022-11-12T03:05:23;101397.28;;;7.44;100.00
4022;BME280;2025;48.260;16.432;2022-11-12T03:07:55;101406.09;;;7.46;100.00
4022;BME280;2025;48.260;16.432;2022-11-12T03:10:23;101392.97;;;7.44;100.00
4022;BME280;2025;48.260;16.432;2022-11-12T03:12:52;101401.91;;;7.49;100.00
4022;BME280;2025;48.260;16.432;2022-11-12T03:15:20;101399.97;;;7.45;100.00
4022;BME280;2025;48.260;16.432;2022-11-12T03:17:47;101403.47;;;7.46;100.00
4022;BME280;2025;48.260;16.432;2022-11-12T03:20:14;101398.19;;;7.44;100.00
4022;BME280;2025;48.260;16.432;2022-11-12T03:22:42;101399.41;;;7.33;100.00
4022;BME280;2025;48.260;16.432;2022-11-12T03:25:09;101406.78;;;7.24;100.00
4022;BME280;2025;48.260;16.432;2022-11-12T03:27:36;101414.31;;;7.18;100.00
4022;BME280;2025;48.260;16.432;2022-11-12T03:30:06;101411.19;;;7.07;100.00
4022;BME280;2025;48.260;16.432;2022-11-12T03:32:33;101391.19;;;6.90;100.00
4022;BME280;2025;48.260;16.432;2022-11-12T03:35:00;101381.34;;;6.84;100.00
4022;BME280;2025;48.260;16.432;2022-11-12T03:37:30;101373.69;;;6.87;100.00
4022;BME280;2025;48.260;16.432;2022-11-12T03:39:57;101384.91;;;6.86;100.00
4022;BME280;2025;48.260;16.432;2022-11-12T03:42:24;101378.75;;;6.84;100.00
4022;BME280;2025;48.260;16.432;2022-11-12T03:44:51;101381.03;;;6.78;100.00
4022;BME280;2025;48.260;16.432;2022-11-12T03:47:20;101383.19;;;6.69;100.00
4022;BME280;2025;48.260;16.432;2022-11-12T03:49:47;101390.25;;;6.54;100.00
4022;BME280;2025;48.260;16.432;2022-11-12T03:52:14;101381.00;;;6.42;100.00
4022;BME280;2025;48.260;16.432;2022-11-12T03:54:41;101362.38;;;6.35;100.00
4022;BME280;2025;48.260;16.432;2022-11-12T03:57:08;101353.44;;;6.30;100.00
4022;BME280;2025;48.260;16.432;2022-11-12T03:59:35;101354.72;;;6.38;100.00
4022;BME280;2025;48.260;16.432;2022-11-12T04:02:02;101345.34;;;6.41;100.00
4022;BME280;2025;48.260;16.432;2022-11-12T04:04:31;101360.81;;;6.38;100.00
4022;BME280;2025;48.260;16.432;2022-11-12T04:07:11;101360.47;;;6.15;100.00
4022;BME280;2025;48.260;16.432;2022-11-12T04:09:56;101341.34;;;6.14;100.00
4022;BME280;2025;48.260;16.432;2022-11-12T04:12:23;101344.03;;;6.16;100.00
4022;BME280;2025;48.260;16.432;2022-11-12T04:15:07;101344.13;;;6.01;100.00
4022;BME280;2025;48.260;16.432;2022-11-12T04:17:35;101342.84;;;5.93;100.00
4022;BME280;2025;48.260;16.432;2022-11-12T04:20:21;101334.69;;;5.87;100.00
4022;BME280;2025;48.260;16.432;2022-11-12T04:23:05;101345.34;;;5.75;100.00
4022;BME280;2025;48.260;16.432;2022-11-12T04:25:32;101345.25;;;5.57;100.00
4022;BME280;2025;48.260;16.432;2022-11-12T04:28:17;101341.00;;;5.43;100.00
4022;BME280;2025;48.260;16.432;2022-11-12T04:30:44;101342.03;;;5.30;100.00
4022;BME280;2025;48.260;16.432;2022-11-12T04:33:10;101341.09;;;5.13;100.00
4022;BME280;2025;48.260;16.432;2022-11-12T04:35:38;101342.66;;;4.95;100.00
4022;BME280;2025;48.260;16.432;2022-11-12T04:38:05;101339.38;;;4.83;100.00
4022;BME280;2025;48.260;16.432;2022-11-12T04:40:33;101299.97;;;4.75;100.00
4022;BME280;2025;48.260;16.432;2022-11-12T04:43:17;101304.91;;;4.71;100.00
4022;BME280;2025;48.260;16.432;2022-11-12T04:46:02;101292.09;;;4.74;100.00
4022;BME280;2025;48.260;16.432;2022-11-12T04:48:30;101293.81;;;4.73;100.00
4022;BME280;2025;48.260;16.432;2022-11-12T04:51:01;101289.25;;;4.69;100.00
4022;BME280;2025;48.260;16.432;2022-11-12T04:53:29;101287.38;;;4.67;100.00
4022;BME280;2025;48.260;16.432;2022-11-12T04:55:57;101292.22;;;4.61;100.00
4022;BME280;2025;48.260;16.432;2022-11-12T04:58:25;101292.84;;;4.57;100.00
4022;BME280;2025;48.260;16.432;2022-11-12T05:00:52;101283.09;;;4.53;100.00
4022;BME280;2025;48.260;16.432;2022-11-12T05:03:19;101273.69;;;4.55;100.00
4022;BME280;2025;48.260;16.432;2022-11-12T05:05:47;101294.94;;;4.47;100.00
4022;BME280;2025;48.260;16.432;2022-11-12T05:08:16;101284.91;;;4.24;100.00
4022;BME280;2025;48.260;16.432;2022-11-12T05:10:43;101280.19;;;4.17;100.00
4022;BME280;2025;48.260;16.432;2022-11-12T05:13:10;101291.53;;;4.04;100.00
4022;BME280;2025;48.260;16.432;2022-11-12T05:15:37;101291.28;;;4.00;100.00
4022;BME280;2025;48.260;16.432;2022-11-12T05:18:05;101296.56;;;4.01;100.00
4022;BME280;2025;48.260;16.432;2022-11-12T05:20:32;101296.09;;;3.94;100.00
4022;BME280;2025;48.260;16.432;2022-11-12T05:23:00;101294.03;;;3.88;100.00
4022;BME280;2025;48.260;16.432;2022-11-12T05:25:29;101291.97;;;3.82;100.00
4022;BME280;2025;48.260;16.432;2022-11-12T05:27:56;101297.69;;;3.77;100.00
4022;BME280;2025;48.260;16.432;2022-11-12T05:30:23;101293.03;;;3.71;100.00
4022;BME280;2025;48.260;16.432;2022-11-12T05:32:50;101299.72;;;3.68;100.00
4022;BME280;2025;48.260;16.432;2022-11-12T05:35:17;101291.75;;;3.65;100.00
4022;BME280;2025;48.260;16.432;2022-11-12T05:37:44;101290.69;;;3.61;100.00
4022;BME280;2025;48.260;16.432;2022-11-12T05:40:12;101285.94;;;3.54;100.00
4022;BME280;2025;48.260;16.432;2022-11-12T05:42:40;101284.94;;;3.52;100.00
4022;BME280;2025;48.260;16.432;2022-11-12T05:45:08;101303.69;;;3.48;100.00
4022;BME280;2025;48.260;16.432;2022-11-12T05:47:35;101302.09;;;3.37;100.00
4022;BME280;2025;48.260;16.432;2022-11-12T05:50:02;101294.25;;;3.35;100.00
4022;BME280;2025;48.260;16.432;2022-11-12T05:52:29;101302.09;;;3.37;100.00
4022;BME280;2025;48.260;16.432;2022-11-12T05:54:56;101307.00;;;3.32;100.00
4022;BME280;2025;48.260;16.432;2022-11-12T05:57:25;101308.78;;;3.33;100.00
4022;BME280;2025;48.260;16.432;2022-11-12T05:59:54;101312.41;;;3.22;100.00
4022;BME280;2025;48.260;16.432;2022-11-12T06:02:21;101309.63;;;3.19;100.00
4022;BME280;2025;48.260;16.432;2022-11-12T06:04:48;101304.63;;;3.22;100.00
4022;BME280;2025;48.260;16.432;2022-11-12T06:07:15;101301.63;;;3.29;100.00
4022;BME280;2025;48.260;16.432;2022-11-12T06:09:42;101300.94;;;3.32;100.00
4022;BME280;2025;48.260;16.432;2022-11-12T06:12:09;101289.25;;;3.38;100.00
4022;BME280;2025;48.260;16.432;2022-11-12T06:14:36;101305.88;;;3.42;100.00
4022;BME280;2025;48.260;16.432;2022-11-12T06:17:04;101298.91;;;3.41;100.00
4022;BME280;2025;48.260;16.432;2022-11-12T06:19:31;101313.56;;;3.40;100.00
4022;BME280;2025;48.260;16.432;2022-11-12T06:21:58;101296.75;;;3.62;100.00
4022;BME280;2025;48.260;16.432;2022-11-12T06:24:25;101298.81;;;3.67;100.00
4022;BME280;2025;48.260;16.432;2022-11-12T06:26:53;101305.63;;;3.65;100.00
4022;BME280;2025;48.260;16.432;2022-11-12T06:29:20;101310.81;;;3.65;100.00
4022;BME280;2025;48.260;16.432;2022-11-12T06:31:47;101306.41;;;3.64;100.00
4022;BME280;2025;48.260;16.432;2022-11-12T06:34:15;101308.22;;;3.65;100.00
4022;BME280;2025;48.260;16.432;2022-11-12T06:36:42;101316.78;;;3.64;100.00
4022;BME280;2025;48.260;16.432;2022-11-12T06:39:09;101304.19;;;3.70;100.00
4022;BME280;2025;48.260;16.432;2022-11-12T06:41:36;101307.53;;;3.82;100.00
4022;BME280;2025;48.260;16.432;2022-11-12T06:44:04;101305.47;;;3.92;100.00
4022;BME280;2025;48.260;16.432;2022-11-12T06:46:31;101299.84;;;3.99;100.00
4022;BME280;2025;48.260;16.432;2022-11-12T06:48:58;101308.97;;;4.07;100.00
4022;BME280;2025;48.260;16.432;2022-11-12T06:51:26;101310.06;;;4.25;100.00
4022;BME280;2025;48.260;16.432;2022-11-12T06:53:55;101319.63;;;4.41;100.00
4022;BME280;2025;48.260;16.432;2022-11-12T06:56:21;101320.75;;;4.75;100.00
4022;BME280;2025;48.260;16.432;2022-11-12T06:58:48;101317.66;;;4.97;100.00
4022;BME280;2025;48.260;16.432;2022-11-12T07:01:16;101306.50;;;5.14;100.00
4022;BME280;2025;48.260;16.432;2022-11-12T07:03:43;101308.59;;;5.36;100.00
4022;BME280;2025;48.260;16.432;2022-11-12T07:06:12;101312.91;;;5.52;100.00
4022;BME280;2025;48.260;16.432;2022-11-12T07:08:41;101337.53;;;5.75;100.00
4022;BME280;2025;48.260;16.432;2022-11-12T07:11:08;101344.28;;;5.88;100.00
4022;BME280;2025;48.260;16.432;2022-11-12T07:13:35;101355.28;;;5.98;100.00
4022;BME280;2025;48.260;16.432;2022-11-12T07:16:04;101350.69;;;6.10;100.00
4022;BME280;2025;48.260;16.432;2022-11-12T07:18:32;101366.56;;;6.15;100.00
4022;BME280;2025;48.260;16.432;2022-11-12T07:21:01;101377.25;;;6.37;100.00
4022;BME280;2025;48.260;16.432;2022-11-12T07:23:29;101398.16;;;6.39;100.00
4022;BME280;2025;48.260;16.432;2022-11-12T07:26:02;101402.28;;;6.52;100.00
4022;BME280;2025;48.260;16.432;2022-11-12T07:28:29;101424.09;;;6.54;100.00
4022;BME280;2025;48.260;16.432;2022-11-12T07:30:57;101427.63;;;6.72;100.00
4022;BME280;2025;48.260;16.432;2022-11-12T07:33:25;101427.44;;;6.85;100.00
4022;BME280;2025;48.260;16.432;2022-11-12T07:35:56;101438.16;;;6.91;100.00
4022;BME280;2025;48.260;16.432;2022-11-12T07:38:24;101447.28;;;6.99;100.00
4022;BME280;2025;48.260;16.432;2022-11-12T07:40:56;101456.53;;;7.11;100.00
4022;BME280;2025;48.260;16.432;2022-11-12T07:43:25;101458.84;;;7.22;100.00
4022;BME280;2025;48.260;16.432;2022-11-12T07:45:52;101449.16;;;7.37;100.00
4022;BME280;2025;48.260;16.432;2022-11-12T07:48:23;101467.13;;;7.49;100.00
4022;BME280;2025;48.260;16.432;2022-11-12T07:50:50;101484.91;;;7.58;100.00
4022;BME280;2025;48.260;16.432;2022-11-12T07:53:17;101487.91;;;7.65;100.00
4022;BME280;2025;48.260;16.432;2022-11-12T07:55:52;101492.19;;;7.83;100.00
4022;BME280;2025;48.260;16.432;2022-11-12T07:58:19;101493.06;;;8.01;100.00
4022;BME280;2025;48.260;16.432;2022-11-12T08:00:49;101484.41;;;8.21;100.00
4022;BME280;2025;48.260;16.432;2022-11-12T08:03:16;101489.47;;;8.36;100.00
4022;BME280;2025;48.260;16.432;2022-11-12T08:05:44;101483.47;;;8.58;100.00
4022;BME280;2025;48.260;16.432;2022-11-12T08:08:11;101478.53;;;8.64;100.00
4022;BME280;2025;48.260;16.432;2022-11-12T08:10:38;101492.63;;;8.87;100.00
4022;BME280;2025;48.260;16.432;2022-11-12T08:13:05;101496.44;;;8.95;100.00
4022;BME280;2025;48.260;16.432;2022-11-12T08:15:32;101500.94;;;9.18;100.00
4022;BME280;2025;48.260;16.432;2022-11-12T08:18:00;101502.22;;;9.28;100.00
4022;BME280;2025;48.260;16.432;2022-11-12T08:20:27;101485.22;;;9.39;100.00
4022;BME280;2025;48.260;16.432;2022-11-12T08:22:58;101502.25;;;9.50;100.00
4022;BME280;2025;48.260;16.432;2022-11-12T08:25:26;101498.94;;;9.54;100.00
4022;BME280;2025;48.260;16.432;2022-11-12T08:27:55;101503.69;;;9.64;100.00
4022;BME280;2025;48.260;16.432;2022-11-12T08:30:23;101502.28;;;9.73;100.00
4022;BME280;2025;48.260;16.432;2022-11-12T08:32:55;101506.22;;;9.84;100.00
4022;BME280;2025;48.260;16.432;2022-11-12T08:35:23;101504.53;;;9.86;100.00
4022;BME280;2025;48.260;16.432;2022-11-12T08:37:51;101513.47;;;9.91;100.00
4022;BME280;2025;48.260;16.432;2022-11-12T08:40:18;101512.28;;;10.05;100.00
4022;BME280;2025;48.260;16.432;2022-11-12T08:42:45;101518.28;;;10.03;100.00
4022;BME280;2025;48.260;16.432;2022-11-12T08:45:12;101520.59;;;10.17;100.00
4022;BME280;2025;48.260;16.432;2022-11-12T08:47:39;101519.09;;;10.22;100.00
4022;BME280;2025;48.260;16.432;2022-11-12T08:50:07;101528.84;;;10.26;100.00
4022;BME280;2025;48.260;16.432;2022-11-12T08:52:35;101527.69;;;10.41;100.00
4022;BME280;2025;48.260;16.432;2022-11-12T08:55:03;101540.41;;;10.54;100.00
4022;BME280;2025;48.260;16.432;2022-11-12T08:57:30;101534.53;;;10.61;100.00
4022;BME280;2025;48.260;16.432;2022-11-12T08:59:57;101532.97;;;10.66;100.00
4022;BME280;2025;48.260;16.432;2022-11-12T09:02:24;101536.25;;;10.84;100.00
4022;BME280;2025;48.260;16.432;2022-11-12T09:04:51;101534.91;;;10.96;100.00
4022;BME280;2025;48.260;16.432;2022-11-12T09:07:18;101523.75;;;11.01;100.00
4022;BME280;2025;48.260;16.432;2022-11-12T09:09:47;101536.44;;;11.14;100.00
4022;BME280;2025;48.260;16.432;2022-11-12T09:12:14;101539.28;;;11.20;100.00
4022;BME280;2025;48.260;16.432;2022-11-12T09:14:44;101547.44;;;11.55;100.00
4022;BME280;2025;48.260;16.432;2022-11-12T09:17:11;101548.50;;;11.60;100.00
4022;BME280;2025;48.260;16.432;2022-11-12T09:19:38;101551.66;;;11.77;100.00
4022;BME280;2025;48.260;16.432;2022-11-12T09:22:05;101545.16;;;11.66;100.00
4022;BME280;2025;48.260;16.432;2022-11-12T09:24:32;101547.41;;;12.07;100.00
4022;BME280;2025;48.260;16.432;2022-11-12T09:27:00;101554.34;;;12.05;100.00
4022;BME280;2025;48.260;16.432;2022-11-12T09:29:27;101554.72;;;12.16;100.00
4022;BME280;2025;48.260;16.432;2022-11-12T09:31:54;101552.72;;;12.37;100.00
4022;BME280;2025;48.260;16.432;2022-11-12T09:34:23;101553.81;;;12.44;100.00
4022;BME280;2025;48.260;16.432;2022-11-12T09:36:51;101546.28;;;12.56;100.00
4022;BME280;2025;48.260;16.432;2022-11-12T09:39:18;101535.25;;;12.69;100.00
4022;BME280;2025;48.260;16.432;2022-11-12T09:41:45;101539.72;;;12.72;100.00
4022;BME280;2025;48.260;16.432;2022-11-12T09:44:16;101544.84;;;13.30;100.00
4022;BME280;2025;48.260;16.432;2022-11-12T09:46:47;101535.06;;;13.26;100.00
4022;BME280;2025;48.260;16.432;2022-11-12T09:49:17;101537.66;;;13.25;100.00
4022;BME280;2025;48.260;16.432;2022-11-12T09:51:49;101543.41;;;13.43;100.00
4022;BME280;2025;48.260;16.432;2022-11-12T09:54:21;101545.59;;;13.26;100.00
4022;BME280;2025;48.260;16.432;2022-11-12T09:56:51;101540.47;;;13.67;100.00
4022;BME280;2025;48.260;16.432;2022-11-12T09:59:21;101538.06;;;14.12;100.00
4022;BME280;2025;48.260;16.432;2022-11-12T10:01:56;101541.63;;;13.78;100.00
4022;BME280;2025;48.260;16.432;2022-11-12T10:04:55;101536.56;;;14.23;100.00
4022;BME280;2025;48.260;16.432;2022-11-12T10:07:36;101527.25;;;14.40;100.00
4022;BME280;2025;48.260;16.432;2022-11-12T10:10:11;101540.56;;;14.45;100.00
4022;BME280;2025;48.260;16.432;2022-11-12T10:12:54;101538.81;;;14.89;100.00
4022;BME280;2025;48.260;16.432;2022-11-12T10:18:28;101523.28;;;16.09;100.00
4022;BME280;2025;48.260;16.432;2022-11-12T10:21:05;101523.13;;;17.46;85.93
4022;BME280;2025;48.260;16.432;2022-11-12T10:23:40;101525.75;;;17.45;82.06
4022;BME280;2025;48.260;16.432;2022-11-12T10:26:11;101515.63;;;18.03;79.93
4022;BME280;2025;48.260;16.432;2022-11-12T10:28:42;101512.31;;;17.26;74.08
4022;BME280;2025;48.260;16.432;2022-11-12T10:31:13;101514.31;;;17.49;74.23
4022;BME280;2025;48.260;16.432;2022-11-12T10:33:42;101511.91;;;17.76;69.51
4022;BME280;2025;48.260;16.432;2022-11-12T10:36:20;101501.19;;;17.66;70.95
4022;BME280;2025;48.260;16.432;2022-11-12T10:38:51;101498.94;;;18.28;72.70
4022;BME280;2025;48.260;16.432;2022-11-12T10:41:22;101490.94;;;18.19;76.83
4022;BME280;2025;48.260;16.432;2022-11-12T10:43:55;101491.91;;;18.36;67.57
4022;BME280;2025;48.260;16.432;2022-11-12T10:46:25;101486.47;;;18.12;69.23
4022;BME280;2025;48.260;16.432;2022-11-12T10:48:56;101483.66;;;16.83;74.98
4022;BME280;2025;48.260;16.432;2022-11-12T10:51:26;101489.50;;;16.57;77.48
4022;BME280;2025;48.260;16.432;2022-11-12T10:53:54;101490.88;;;17.00;76.22
4022;BME280;2025;48.260;16.432;2022-11-12T10:56:24;101494.19;;;16.80;77.04
4022;BME280;2025;48.260;16.432;2022-11-12T10:59:13;101473.56;;;17.35;77.07
4022;BME280;2025;48.260;16.432;2022-11-12T11:01:41;101479.56;;;17.17;73.35
4022;BME280;2025;48.260;16.432;2022-11-12T11:04:26;101480.41;;;17.11;75.56
4022;BME280;2025;48.260;16.432;2022-11-12T11:06:59;101481.69;;;17.56;76.08
4022;BME280;2025;48.260;16.432;2022-11-12T11:09:28;101480.38;;;18.33;77.67
4022;BME280;2025;48.260;16.432;2022-11-12T11:11:55;101474.38;;;18.78;68.61
4022;BME280;2025;48.260;16.432;2022-11-12T11:14:26;101472.50;;;18.52;69.69
4022;BME280;2025;48.260;16.432;2022-11-12T11:16:55;101478.81;;;18.83;66.25
4022;BME280;2025;48.260;16.432;2022-11-12T11:19:32;101477.91;;;18.80;66.24
4022;BME280;2025;48.260;16.432;2022-11-12T11:22:08;101465.50;;;18.67;65.77
4022;BME280;2025;48.260;16.432;2022-11-12T11:24:46;101461.06;;;18.67;65.44
4022;BME280;2025;48.260;16.432;2022-11-12T11:27:27;101451.28;;;18.58;64.90
4022;BME280;2025;48.260;16.432;2022-11-12T11:30:09;101454.09;;;19.07;62.19
4022;BME280;2025;48.260;16.432;2022-11-12T11:35:52;101435.47;;;19.10;63.49
4022;BME280;2025;48.260;16.432;2022-11-12T11:38:32;101430.13;;;19.04;61.33
4022;BME280;2025;48.260;16.432;2022-11-12T11:41:17;101427.47;;;18.98;61.07
4022;BME280;2025;48.260;16.432;2022-11-12T11:43:57;101417.78;;;19.15;62.57
4022;BME280;2025;48.260;16.432;2022-11-12T11:46:37;101436.31;;;18.86;63.54
4022;BME280;2025;48.260;16.432;2022-11-12T11:49:25;101437.13;;;18.56;61.02
4022;BME280;2025;48.260;16.432;2022-11-12T11:52:01;101433.72;;;19.09;60.75
4022;BME280;2025;48.260;16.432;2022-11-12T11:54:54;101422.16;;;19.51;60.17
4022;BME280;2025;48.260;16.432;2022-11-12T11:57:28;101420.38;;;19.72;58.16
4022;BME280;2025;48.260;16.432;2022-11-12T12:00:06;101419.50;;;18.89;56.27
4022;BME280;2025;48.260;16.432;2022-11-12T12:03:01;101420.38;;;18.96;59.66
4022;BME280;2025;48.260;16.432;2022-11-12T12:05:39;101422.19;;;19.07;60.53
4022;BME280;2025;48.260;16.432;2022-11-12T12:08:10;101421.22;;;18.63;58.73
4022;BME280;2025;48.260;16.432;2022-11-12T12:10:49;101418.63;;;19.07;59.43
4022;BME280;2025;48.260;16.432;2022-11-12T12:13:26;101417.63;;;18.54;59.85
4022;BME280;2025;48.260;16.432;2022-11-12T12:16:04;101418.47;;;18.35;60.01
4022;BME280;2025;48.260;16.432;2022-11-12T12:18:42;101414.19;;;19.04;60.46
4022;BME280;2025;48.260;16.432;2022-11-12T12:21:15;101407.06;;;19.73;63.31
4022;BME280;2025;48.260;16.432;2022-11-12T12:23:47;101409.75;;;18.79;61.39
4022;BME280;2025;48.260;16.432;2022-11-12T12:26:19;101414.19;;;18.90;60.44
4022;BME280;2025;48.260;16.432;2022-11-12T12:28:51;101410.34;;;17.91;62.59
4022;BME280;2025;48.260;16.432;2022-11-12T12:31:23;101408.00;;;18.98;60.04
4022;BME280;2025;48.260;16.432;2022-11-12T12:33:51;101400.94;;;19.07;60.15
4022;BME280;2025;48.260;16.432;2022-11-12T12:36:23;101400.88;;;19.51;60.14
4022;BME280;2025;48.260;16.432;2022-11-12T12:38:56;101401.81;;;19.28;58.82
4022;BME280;2025;48.260;16.432;2022-11-12T12:41:32;101399.03;;;18.45;60.18
4022;BME280;2025;48.260;16.432;2022-11-12T12:44:05;101401.78;;;18.73;60.77
4022;BME280;2025;48.260;16.432;2022-11-12T12:46:39;101407.03;;;18.53;63.59
4022;BME280;2025;48.260;16.432;2022-11-12T12:49:11;101400.03;;;19.30;65.00
4022;BME280;2025;48.260;16.432;2022-11-12T12:51:39;101400.69;;;20.18;57.75
4022;BME280;2025;48.260;16.432;2022-11-12T12:57:43;101384.97;;;19.01;60.87
4022;BME280;2025;48.260;16.432;2022-11-12T13:00:40;101380.53;;;18.97;61.79
4022;BME280;2025;48.260;16.432;2022-11-12T13:03:11;101387.63;;;18.86;61.84
4022;BME280;2025;48.260;16.432;2022-11-12T13:05:38;101389.41;;;19.36;60.72
4022;BME280;2025;48.260;16.432;2022-11-12T13:08:08;101385.84;;;18.70;60.46
4022;BME280;2025;48.260;16.432;2022-11-12T13:10:47;101379.69;;;19.19;59.29
4022;BME280;2025;48.260;16.432;2022-11-12T13:13:33;101384.66;;;20.32;58.93
4022;BME280;2025;48.260;16.432;2022-11-12T13:16:01;101384.72;;;20.18;56.36
4022;BME280;2025;48.260;16.432;2022-11-12T13:18:57;101381.28;;;19.97;59.96
4022;BME280;2025;48.260;16.432;2022-11-12T13:21:24;101381.44;;;18.95;60.38
4022;BME280;2025;48.260;16.432;2022-11-12T13:23:52;101383.84;;;17.99;64.95
4022;BME280;2025;48.260;16.432;2022-11-12T13:26:47;101377.63;;;17.86;65.79